sensor_id;sensor_type;location;lat;lon;timestamp;pressure;altitude;pressure_sealevel;temperature;humidity
13478;BME280;12598;62.382;17.344;2023-03-01T00:00:04;102440.09;;;17.91;23.88
13478;BME280;12598;62.382;17.344;2023-03-01T00:01:31;102437.31;;;17.93;23.74
13478;BME280;12598;62.382;17.344;2023-03-01T00:02:33;102438.81;;;17.97;23.52
13478;BME280;12598;62.382;17.344;2023-03-01T00:03:35;102397.91;;;17.70;23.71
13478;BME280;12598;62.382;17.344;2023-03-01T00:04:37;102444.38;;;17.94;23.78
13478;BME280;12598;62.382;17.344;2023-03-01T00:05:46;102378.84;;;17.62;23.94
13478;BME280;12598;62.382;17.344;2023-03-01T00:06:48;102385.16;;;17.61;23.65
13478;BME280;12598;62.382;17.344;2023-03-01T00:07:53;102440.31;;;17.88;24.01
13478;BME280;12598;62.382;17.344;2023-03-01T00:08:55;102373.38;;;17.51;23.64
13478;BME280;12598;62.382;17.344;2023-03-01T00:09:57;102409.34;;;17.72;23.71
13478;BME280;12598;62.382;17.344;2023-03-01T00:11:04;102386.13;;;17.60;23.99
13478;BME280;12598;62.382;17.344;2023-03-01T00:12:07;102359.28;;;17.49;23.95
13478;BME280;12598;62.382;17.344;2023-03-01T00:13:09;102375.44;;;17.60;23.71
13478;BME280;12598;62.382;17.344;2023-03-01T00:14:11;102407.63;;;17.71;23.79
13478;BME280;12598;62.382;17.344;2023-03-01T00:15:13;102391.34;;;17.62;23.96
13478;BME280;12598;62.382;17.344;2023-03-01T00:16:18;102381.00;;;17.57;24.07
13478;BME280;12598;62.382;17.344;2023-03-01T00:17:21;102389.56;;;17.62;24.02
13478;BME280;12598;62.382;17.344;2023-03-01T00:18:23;102375.94;;;17.53;24.11
13478;BME280;12598;62.382;17.344;2023-03-01T00:19:25;102402.19;;;17.60;24.25
13478;BME280;12598;62.382;17.344;2023-03-01T00:20:27;102377.34;;;17.58;24.13
13478;BME280;12598;62.382;17.344;2023-03-01T00:21:29;102231.66;;;16.62;24.14
13478;BME280;12598;62.382;17.344;2023-03-01T00:22:31;102431.28;;;17.77;24.18
13478;BME280;12598;62.382;17.344;2023-03-01T00:23:37;102376.81;;;17.53;24.05
13478;BME280;12598;62.382;17.344;2023-03-01T00:24:39;102387.84;;;17.61;24.12
13478;BME280;12598;62.382;17.344;2023-03-01T00:25:42;102421.13;;;17.82;23.71
13478;BME280;12598;62.382;17.344;2023-03-01T00:26:44;102415.44;;;17.74;24.07
13478;BME280;12598;62.382;17.344;2023-03-01T00:27:46;102437.19;;;17.82;24.11
13478;BME280;12598;62.382;17.344;2023-03-01T00:28:50;102404.97;;;17.71;23.99
13478;BME280;12598;62.382;17.344;2023-03-01T00:29:52;102379.91;;;17.47;23.95
13478;BME280;12598;62.382;17.344;2023-03-01T00:30:55;102392.75;;;17.67;24.06
13478;BME280;12598;62.382;17.344;2023-03-01T00:31:57;102387.84;;;17.61;24.24
13478;BME280;12598;62.382;17.344;2023-03-01T00:33:00;102383.44;;;17.60;24.32
13478;BME280;12598;62.382;17.344;2023-03-01T00:34:04;102418.88;;;17.76;24.19
13478;BME280;12598;62.382;17.344;2023-03-01T00:35:06;102330.78;;;17.36;24.27
13478;BME280;12598;62.382;17.344;2023-03-01T00:36:09;102251.56;;;16.83;24.05
13478;BME280;12598;62.382;17.344;2023-03-01T00:37:11;102351.84;;;17.40;24.08
13478;BME280;12598;62.382;17.344;2023-03-01T00:38:13;102359.66;;;17.43;24.05
13478;BME280;12598;62.382;17.344;2023-03-01T00:39:15;102378.53;;;17.54;24.29
13478;BME280;12598;62.382;17.344;2023-03-01T00:40:17;102353.03;;;17.36;24.39
13478;BME280;12598;62.382;17.344;2023-03-01T00:41:20;102410.94;;;17.62;24.08
13478;BME280;12598;62.382;17.344;2023-03-01T00:42:24;102407.53;;;17.60;24.46
13478;BME280;12598;62.382;17.344;2023-03-01T00:43:25;102370.78;;;17.37;24.27
13478;BME280;12598;62.382;17.344;2023-03-01T00:44:27;102402.47;;;17.56;24.45
13478;BME280;12598;62.382;17.344;2023-03-01T00:45:29;102430.66;;;17.74;24.09
13478;BME280;12598;62.382;17.344;2023-03-01T00:46:32;102408.59;;;17.70;24.31
13478;BME280;12598;62.382;17.344;2023-03-01T00:47:36;102364.91;;;17.45;24.38
13478;BME280;12598;62.382;17.344;2023-03-01T00:48:38;102404.75;;;17.74;24.45
13478;BME280;12598;62.382;17.344;2023-03-01T00:49:40;102388.16;;;17.57;24.48
13478;BME280;12598;62.382;17.344;2023-03-01T00:50:42;102359.50;;;17.32;24.37
13478;BME280;12598;62.382;17.344;2023-03-01T00:51:44;102403.78;;;17.63;24.32
13478;BME280;12598;62.382;17.344;2023-03-01T00:52:46;102422.72;;;17.72;24.41
13478;BME280;12598;62.382;17.344;2023-03-01T00:53:51;102428.06;;;17.72;24.53
13478;BME280;12598;62.382;17.344;2023-03-01T00:54:53;102347.81;;;17.35;23.92
13478;BME280;12598;62.382;17.344;2023-03-01T00:55:57;102413.75;;;17.73;23.99
13478;BME280;12598;62.382;17.344;2023-03-01T00:56:58;102331.06;;;17.31;24.35
13478;BME280;12598;62.382;17.344;2023-03-01T00:58:01;102370.06;;;17.48;24.03
13478;BME280;12598;62.382;17.344;2023-03-01T00:59:02;102377.78;;;17.52;24.29
13478;BME280;12598;62.382;17.344;2023-03-01T01:00:05;102411.19;;;17.72;24.36
13478;BME280;12598;62.382;17.344;2023-03-01T01:02:19;102340.31;;;17.40;24.14
13478;BME280;12598;62.382;17.344;2023-03-01T01:03:22;102415.44;;;17.74;24.52
13478;BME280;12598;62.382;17.344;2023-03-01T01:04:26;102391.16;;;17.65;24.38
13478;BME280;12598;62.382;17.344;2023-03-01T01:05:28;102353.06;;;17.49;24.34
13478;BME280;12598;62.382;17.344;2023-03-01T01:06:32;102401.31;;;17.72;24.27
13478;BME280;12598;62.382;17.344;2023-03-01T01:07:35;102400.50;;;17.72;24.38
13478;BME280;12598;62.382;17.344;2023-03-01T01:08:38;102365.38;;;17.51;24.20
13478;BME280;12598;62.382;17.344;2023-03-01T01:09:40;102365.38;;;17.51;24.21
13478;BME280;12598;62.382;17.344;2023-03-01T01:10:44;102391.72;;;17.70;24.44
13478;BME280;12598;62.382;17.344;2023-03-01T01:11:48;102379.91;;;17.60;24.34
13478;BME280;12598;62.382;17.344;2023-03-01T01:12:51;102368.66;;;17.55;24.41
13478;BME280;12598;62.382;17.344;2023-03-01T01:13:53;102390.84;;;17.69;24.49
13478;BME280;12598;62.382;17.344;2023-03-01T01:14:56;102349.94;;;17.42;24.58
13478;BME280;12598;62.382;17.344;2023-03-01T01:16:01;102355.09;;;17.45;24.50
13478;BME280;12598;62.382;17.344;2023-03-01T01:17:03;102356.59;;;17.49;24.48
13478;BME280;12598;62.382;17.344;2023-03-01T01:18:05;102383.78;;;17.68;24.54
13478;BME280;12598;62.382;17.344;2023-03-01T01:19:09;102318.13;;;17.25;24.59
13478;BME280;12598;62.382;17.344;2023-03-01T01:20:12;102285.25;;;17.11;24.66
13478;BME280;12598;62.382;17.344;2023-03-01T01:21:16;102387.41;;;17.67;24.79
13478;BME280;12598;62.382;17.344;2023-03-01T01:22:18;102367.72;;;17.56;24.48
13478;BME280;12598;62.382;17.344;2023-03-01T01:23:20;102371.25;;;17.56;24.59
13478;BME280;12598;62.382;17.344;2023-03-01T01:24:22;102307.19;;;17.16;24.54
13478;BME280;12598;62.382;17.344;2023-03-01T01:25:24;102382.06;;;17.67;24.69
13478;BME280;12598;62.382;17.344;2023-03-01T01:26:31;102325.53;;;17.34;24.53
13478;BME280;12598;62.382;17.344;2023-03-01T01:27:34;102279.63;;;17.15;24.64
13478;BME280;12598;62.382;17.344;2023-03-01T01:28:36;102341.91;;;17.42;24.65
13478;BME280;12598;62.382;17.344;2023-03-01T01:29:38;102342.69;;;17.44;24.79
13478;BME280;12598;62.382;17.344;2023-03-01T01:30:40;102382.94;;;17.68;24.68
13478;BME280;12598;62.382;17.344;2023-03-01T01:31:43;102359.81;;;17.54;24.49
13478;BME280;12598;62.382;17.344;2023-03-01T01:32:45;102355.00;;;17.59;24.47
13478;BME280;12598;62.382;17.344;2023-03-01T01:33:47;102379.50;;;17.66;24.62
13478;BME280;12598;62.382;17.344;2023-03-01T01:34:49;102338.94;;;17.47;24.88
13478;BME280;12598;62.382;17.344;2023-03-01T01:35:51;102335.59;;;17.43;24.57
13478;BME280;12598;62.382;17.344;2023-03-01T01:36:53;102357.00;;;17.56;24.77
13478;BME280;12598;62.382;17.344;2023-03-01T01:37:55;102346.41;;;17.42;24.66
13478;BME280;12598;62.382;17.344;2023-03-01T01:38:57;102350.50;;;17.47;24.97
13478;BME280;12598;62.382;17.344;2023-03-01T01:40:00;102383.13;;;17.65;24.89
13478;BME280;12598;62.382;17.344;2023-03-01T01:41:06;102361.53;;;17.55;24.72
13478;BME280;12598;62.382;17.344;2023-03-01T01:42:15;102360.78;;;17.53;24.83
13478;BME280;12598;62.382;17.344;2023-03-01T01:43:29;102315.16;;;17.30;24.58
13478;BME280;12598;62.382;17.344;2023-03-01T01:44:33;102327.47;;;17.45;24.56
13478;BME280;12598;62.382;17.344;2023-03-01T01:45:35;102318.88;;;17.27;24.81
13478;BME280;12598;62.382;17.344;2023-03-01T01:46:41;102267.09;;;17.03;24.79
13478;BME280;12598;62.382;17.344;2023-03-01T01:47:43;102332.16;;;17.41;24.92
13478;BME280;12598;62.382;17.344;2023-03-01T01:48:54;102339.81;;;17.47;24.61
13478;BME280;12598;62.382;17.344;2023-03-01T01:49:57;102299.41;;;17.25;24.80
13478;BME280;12598;62.382;17.344;2023-03-01T01:51:00;102330.06;;;17.46;24.92
13478;BME280;12598;62.382;17.344;2023-03-01T01:52:16;102366.22;;;17.64;24.70
13478;BME280;12598;62.382;17.344;2023-03-01T01:53:19;102360.66;;;17.67;24.88
13478;BME280;12598;62.382;17.344;2023-03-01T01:54:34;102264.53;;;17.14;24.95
13478;BME280;12598;62.382;17.344;2023-03-01T01:55:43;102357.97;;;17.67;24.81
13478;BME280;12598;62.382;17.344;2023-03-01T01:56:52;102286.78;;;17.27;24.88
13478;BME280;12598;62.382;17.344;2023-03-01T01:58:00;102274.38;;;17.14;24.68
13478;BME280;12598;62.382;17.344;2023-03-01T01:59:03;102320.72;;;17.39;24.66
13478;BME280;12598;62.382;17.344;2023-03-01T02:00:11;102267.66;;;17.08;25.15
13478;BME280;12598;62.382;17.344;2023-03-01T02:01:14;102279.84;;;17.12;24.88
13478;BME280;12598;62.382;17.344;2023-03-01T02:02:16;102299.09;;;17.30;24.85
13478;BME280;12598;62.382;17.344;2023-03-01T02:03:25;102312.69;;;17.39;24.65
13478;BME280;12598;62.382;17.344;2023-03-01T02:04:32;102336.47;;;17.56;24.96
13478;BME280;12598;62.382;17.344;2023-03-01T02:06:49;102328.34;;;17.45;24.77
13478;BME280;12598;62.382;17.344;2023-03-01T02:07:53;102358.19;;;17.64;25.02
13478;BME280;12598;62.382;17.344;2023-03-01T02:09:03;102342.25;;;17.63;24.96
13478;BME280;12598;62.382;17.344;2023-03-01T02:10:06;102353.81;;;17.63;24.64
13478;BME280;12598;62.382;17.344;2023-03-01T02:11:10;102329.94;;;17.60;25.19
13478;BME280;12598;62.382;17.344;2023-03-01T02:12:16;102353.16;;;17.60;25.12
13478;BME280;12598;62.382;17.344;2023-03-01T02:13:19;102339.47;;;17.52;24.77
13478;BME280;12598;62.382;17.344;2023-03-01T02:14:21;102341.50;;;17.48;25.02
13478;BME280;12598;62.382;17.344;2023-03-01T02:15:23;102277.16;;;17.12;25.00
13478;BME280;12598;62.382;17.344;2023-03-01T02:16:26;102275.44;;;17.11;25.14
13478;BME280;12598;62.382;17.344;2023-03-01T02:17:29;102298.75;;;17.22;25.27
13478;BME280;12598;62.382;17.344;2023-03-01T02:18:31;102285.59;;;17.19;25.24
13478;BME280;12598;62.382;17.344;2023-03-01T02:22:34;102335.63;;;17.68;24.92
13478;BME280;12598;62.382;17.344;2023-03-01T02:23:36;102329.50;;;17.54;24.80
13478;BME280;12598;62.382;17.344;2023-03-01T02:24:54;102333.25;;;17.64;25.10
13478;BME280;12598;62.382;17.344;2023-03-01T02:26:19;102341.84;;;17.69;25.11
13478;BME280;12598;62.382;17.344;2023-03-01T02:27:26;102343.88;;;17.65;25.04
13478;BME280;12598;62.382;17.344;2023-03-01T02:28:32;102279.72;;;17.26;25.11
13478;BME280;12598;62.382;17.344;2023-03-01T02:29:35;102267.09;;;17.16;25.38
13478;BME280;12598;62.382;17.344;2023-03-01T02:30:37;102352.31;;;17.59;25.06
13478;BME280;12598;62.382;17.344;2023-03-01T02:32:01;102315.16;;;17.42;24.80
13478;BME280;12598;62.382;17.344;2023-03-01T02:33:04;102300.69;;;17.32;25.03
13478;BME280;12598;62.382;17.344;2023-03-01T02:34:07;102348.78;;;17.59;25.15
13478;BME280;12598;62.382;17.344;2023-03-01T02:35:13;102276.53;;;17.21;25.03
13478;BME280;12598;62.382;17.344;2023-03-01T02:36:22;102344.50;;;17.56;25.08
13478;BME280;12598;62.382;17.344;2023-03-01T02:37:25;102287.22;;;17.21;25.04
13478;BME280;12598;62.382;17.344;2023-03-01T02:38:29;102306.81;;;17.34;24.80
13478;BME280;12598;62.382;17.344;2023-03-01T02:39:47;102305.66;;;17.38;25.06
13478;BME280;12598;62.382;17.344;2023-03-01T02:40:51;102268.28;;;17.24;24.67
13478;BME280;12598;62.382;17.344;2023-03-01T02:41:56;102300.22;;;17.40;25.01
13478;BME280;12598;62.382;17.344;2023-03-01T02:42:58;102289.59;;;17.38;25.03
13478;BME280;12598;62.382;17.344;2023-03-01T02:44:01;102292.66;;;17.32;24.92
13478;BME280;12598;62.382;17.344;2023-03-01T02:45:03;102272.25;;;17.31;25.13
13478;BME280;12598;62.382;17.344;2023-03-01T02:46:15;102311.66;;;17.54;25.07
13478;BME280;12598;62.382;17.344;2023-03-01T02:47:17;102279.13;;;17.35;25.02
13478;BME280;12598;62.382;17.344;2023-03-01T02:48:19;102319.69;;;17.54;24.86
13478;BME280;12598;62.382;17.344;2023-03-01T02:49:28;102329.41;;;17.55;25.20
13478;BME280;12598;62.382;17.344;2023-03-01T02:53:23;102294.13;;;17.50;24.99
13478;BME280;12598;62.382;17.344;2023-03-01T02:54:42;102255.56;;;17.28;25.07
13478;BME280;12598;62.382;17.344;2023-03-01T02:55:48;102282.22;;;17.42;25.23
13478;BME280;12598;62.382;17.344;2023-03-01T02:56:50;102324.59;;;17.60;25.33
13478;BME280;12598;62.382;17.344;2023-03-01T02:57:55;102289.59;;;17.38;25.31
13478;BME280;12598;62.382;17.344;2023-03-01T02:58:58;102282.75;;;17.34;25.09
13478;BME280;12598;62.382;17.344;2023-03-01T03:00:08;102311.66;;;17.54;25.31
13478;BME280;12598;62.382;17.344;2023-03-01T03:01:12;102255.66;;;17.14;25.35
13478;BME280;12598;62.382;17.344;2023-03-01T03:02:23;102322.38;;;17.54;25.19
13478;BME280;12598;62.382;17.344;2023-03-01T03:03:59;102270.88;;;17.38;25.02
13478;BME280;12598;62.382;17.344;2023-03-01T03:05:04;102320.22;;;17.59;25.20
13478;BME280;12598;62.382;17.344;2023-03-01T03:06:08;102316.78;;;17.57;25.12
13478;BME280;12598;62.382;17.344;2023-03-01T03:07:10;102279.53;;;17.29;25.14
13478;BME280;12598;62.382;17.344;2023-03-01T03:08:12;102296.66;;;17.39;25.29
13478;BME280;12598;62.382;17.344;2023-03-01T03:09:17;102321.50;;;17.54;25.12
13478;BME280;12598;62.382;17.344;2023-03-01T03:10:28;102284.88;;;17.29;25.19
13478;BME280;12598;62.382;17.344;2023-03-01T03:11:30;102272.88;;;17.22;25.11
13478;BME280;12598;62.382;17.344;2023-03-01T03:12:34;102272.47;;;17.28;25.15
13478;BME280;12598;62.382;17.344;2023-03-01T03:13:37;102288.84;;;17.36;25.46
13478;BME280;12598;62.382;17.344;2023-03-01T03:14:39;102209.13;;;16.91;25.26
13478;BME280;12598;62.382;17.344;2023-03-01T03:15:42;102314.56;;;17.51;25.38
13478;BME280;12598;62.382;17.344;2023-03-01T03:16:48;102161.97;;;16.53;25.40
13478;BME280;12598;62.382;17.344;2023-03-01T03:17:52;102302.03;;;17.52;25.15
13478;BME280;12598;62.382;17.344;2023-03-01T03:18:54;102277.53;;;17.33;25.25
13478;BME280;12598;62.382;17.344;2023-03-01T03:19:56;102158.88;;;16.59;25.20
13478;BME280;12598;62.382;17.344;2023-03-01T03:20:58;102240.50;;;17.14;25.03
13478;BME280;12598;62.382;17.344;2023-03-01T03:22:00;102194.94;;;16.91;25.26
13478;BME280;12598;62.382;17.344;2023-03-01T03:23:03;102241.44;;;17.13;25.15
13478;BME280;12598;62.382;17.344;2023-03-01T03:24:05;102221.75;;;17.02;25.03
13478;BME280;12598;62.382;17.344;2023-03-01T03:25:08;102210.41;;;16.98;25.20
13478;BME280;12598;62.382;17.344;2023-03-01T03:26:13;102277.41;;;17.34;25.47
13478;BME280;12598;62.382;17.344;2023-03-01T03:27:16;102252.56;;;17.20;25.31
13478;BME280;12598;62.382;17.344;2023-03-01T03:28:18;102274.75;;;17.34;25.31
13478;BME280;12598;62.382;17.344;2023-03-01T03:29:20;102244.53;;;17.20;25.20
13478;BME280;12598;62.382;17.344;2023-03-01T03:30:28;102228.59;;;17.06;25.46
13478;BME280;12598;62.382;17.344;2023-03-01T03:31:30;102214.28;;;17.07;25.40
13478;BME280;12598;62.382;17.344;2023-03-01T03:32:32;102246.69;;;17.27;25.31
13478;BME280;12598;62.382;17.344;2023-03-01T03:33:34;102256.16;;;17.33;25.48
13478;BME280;12598;62.382;17.344;2023-03-01T03:34:36;102237.81;;;17.14;25.26
13478;BME280;12598;62.382;17.344;2023-03-01T03:35:41;102298.59;;;17.50;25.43
13478;BME280;12598;62.382;17.344;2023-03-01T03:36:43;102211.06;;;17.02;25.28
13478;BME280;12598;62.382;17.344;2023-03-01T03:37:45;102288.13;;;17.47;25.46
13478;BME280;12598;62.382;17.344;2023-03-01T03:39:08;102246.47;;;17.30;25.08
13478;BME280;12598;62.382;17.344;2023-03-01T03:40:10;102273.03;;;17.46;25.42
13478;BME280;12598;62.382;17.344;2023-03-01T03:41:17;102194.22;;;17.01;25.08
13478;BME280;12598;62.382;17.344;2023-03-01T03:42:19;102236.88;;;17.28;25.32
13478;BME280;12598;62.382;17.344;2023-03-01T03:43:22;102228.94;;;17.26;25.29
13478;BME280;12598;62.382;17.344;2023-03-01T03:44:24;102157.84;;;16.86;25.36
13478;BME280;12598;62.382;17.344;2023-03-01T03:45:26;102246.06;;;17.36;25.15
13478;BME280;12598;62.382;17.344;2023-03-01T03:46:28;102219.63;;;17.19;25.24
13478;BME280;12598;62.382;17.344;2023-03-01T03:47:30;102031.69;;;16.07;25.48
13478;BME280;12598;62.382;17.344;2023-03-01T03:48:50;102224.13;;;17.31;25.48
13478;BME280;12598;62.382;17.344;2023-03-01T03:49:52;102228.97;;;17.39;25.36
13478;BME280;12598;62.382;17.344;2023-03-01T03:50:55;102255.94;;;17.48;25.44
13478;BME280;12598;62.382;17.344;2023-03-01T03:51:57;102233.56;;;17.37;25.35
13478;BME280;12598;62.382;17.344;2023-03-01T03:53:05;102195.06;;;17.14;25.49
13478;BME280;12598;62.382;17.344;2023-03-01T03:54:07;102262.78;;;17.52;25.52
13478;BME280;12598;62.382;17.344;2023-03-01T03:55:11;102264.47;;;17.53;25.35
13478;BME280;12598;62.382;17.344;2023-03-01T03:56:13;102268.97;;;17.53;25.31
13478;BME280;12598;62.382;17.344;2023-03-01T03:57:15;102214.06;;;17.22;25.47
13478;BME280;12598;62.382;17.344;2023-03-01T03:58:18;102216.66;;;17.24;25.50
13478;BME280;12598;62.382;17.344;2023-03-01T03:59:21;102230.69;;;17.40;25.37
13478;BME280;12598;62.382;17.344;2023-03-01T04:00:23;102154.66;;;16.94;25.34
13478;BME280;12598;62.382;17.344;2023-03-01T04:01:25;102226.25;;;17.26;25.63
13478;BME280;12598;62.382;17.344;2023-03-01T04:02:27;102194.31;;;17.12;25.73
13478;BME280;12598;62.382;17.344;2023-03-01T04:03:30;102256.69;;;17.50;25.42
13478;BME280;12598;62.382;17.344;2023-03-01T04:04:33;102172.81;;;16.89;25.24
13478;BME280;12598;62.382;17.344;2023-03-01T04:05:36;102258.47;;;17.50;25.46
13478;BME280;12598;62.382;17.344;2023-03-01T04:06:38;102182.56;;;17.02;25.44
13478;BME280;12598;62.382;17.344;2023-03-01T04:07:41;102198.69;;;17.13;25.54
13478;BME280;12598;62.382;17.344;2023-03-01T04:08:43;102160.22;;;16.91;25.57
13478;BME280;12598;62.382;17.344;2023-03-01T04:09:45;102213.84;;;17.25;25.46
13478;BME280;12598;62.382;17.344;2023-03-01T04:10:52;102178.16;;;17.01;25.53
13478;BME280;12598;62.382;17.344;2023-03-01T04:11:57;102208.94;;;17.19;25.55
13478;BME280;12598;62.382;17.344;2023-03-01T04:12:59;102210.66;;;17.20;25.30
13478;BME280;12598;62.382;17.344;2023-03-01T04:14:01;102252.16;;;17.51;25.40
13478;BME280;12598;62.382;17.344;2023-03-01T04:15:07;102182.88;;;17.10;25.61
13478;BME280;12598;62.382;17.344;2023-03-01T04:16:15;102226.59;;;17.34;26.05
13478;BME280;12598;62.382;17.344;2023-03-01T04:17:16;102193.97;;;17.17;25.72
13478;BME280;12598;62.382;17.344;2023-03-01T04:18:23;102246.06;;;17.49;25.72
13478;BME280;12598;62.382;17.344;2023-03-01T04:19:26;102151.31;;;16.90;25.63
13478;BME280;12598;62.382;17.344;2023-03-01T04:20:30;102092.03;;;16.60;25.55
13478;BME280;12598;62.382;17.344;2023-03-01T04:21:32;102205.75;;;17.27;25.30
13478;BME280;12598;62.382;17.344;2023-03-01T04:22:34;102208.28;;;17.28;25.40
13478;BME280;12598;62.382;17.344;2023-03-01T04:23:36;102248.75;;;17.49;25.77
13478;BME280;12598;62.382;17.344;2023-03-01T04:24:38;102194.09;;;17.15;25.55
13478;BME280;12598;62.382;17.344;2023-03-01T04:25:51;102199.97;;;17.20;25.28
13478;BME280;12598;62.382;17.344;2023-03-01T04:26:56;102198.69;;;17.26;25.43
13478;BME280;12598;62.382;17.344;2023-03-01T04:27:58;102195.47;;;17.21;25.54
13478;BME280;12598;62.382;17.344;2023-03-01T04:29:00;102224.59;;;17.38;25.70
13478;BME280;12598;62.382;17.344;2023-03-01T04:30:03;102238.19;;;17.47;25.67
13478;BME280;12598;62.382;17.344;2023-03-01T04:31:10;102159.88;;;16.95;25.49
13478;BME280;12598;62.382;17.344;2023-03-01T04:32:17;102160.31;;;17.02;25.44
13478;BME280;12598;62.382;17.344;2023-03-01T04:33:20;102240.63;;;17.50;25.71
13478;BME280;12598;62.382;17.344;2023-03-01T04:34:22;102164.03;;;16.99;25.44
13478;BME280;12598;62.382;17.344;2023-03-01T04:35:24;102164.03;;;16.99;26.03
13478;BME280;12598;62.382;17.344;2023-03-01T04:36:29;102235.81;;;17.43;25.66
13478;BME280;12598;62.382;17.344;2023-03-01T04:37:32;102204.03;;;17.26;25.51
13478;BME280;12598;62.382;17.344;2023-03-01T04:38:38;102197.16;;;17.22;25.78
13478;BME280;12598;62.382;17.344;2023-03-01T04:39:40;102175.81;;;17.09;25.60
13478;BME280;12598;62.382;17.344;2023-03-01T04:40:47;102235.38;;;17.49;25.69
13478;BME280;12598;62.382;17.344;2023-03-01T04:41:49;102180.94;;;17.12;25.59
13478;BME280;12598;62.382;17.344;2023-03-01T04:42:51;102192.38;;;17.27;25.70
13478;BME280;12598;62.382;17.344;2023-03-01T04:43:52;102190.97;;;17.21;25.58
13478;BME280;12598;62.382;17.344;2023-03-01T04:44:54;102227.47;;;17.47;25.61
13478;BME280;12598;62.382;17.344;2023-03-01T04:46:03;102209.78;;;17.32;25.74
13478;BME280;12598;62.382;17.344;2023-03-01T04:47:07;102200.84;;;17.33;25.51
13478;BME280;12598;62.382;17.344;2023-03-01T04:48:09;102165.97;;;17.10;25.44
13478;BME280;12598;62.382;17.344;2023-03-01T04:49:11;102186.69;;;17.19;25.64
13478;BME280;12598;62.382;17.344;2023-03-01T04:50:16;102191.19;;;17.18;25.75
13478;BME280;12598;62.382;17.344;2023-03-01T04:51:18;102211.63;;;17.32;25.47
13478;BME280;12598;62.382;17.344;2023-03-01T04:52:20;102208.41;;;17.27;25.71
13478;BME280;12598;62.382;17.344;2023-03-01T04:53:22;102223.94;;;17.34;25.63
13478;BME280;12598;62.382;17.344;2023-03-01T04:54:24;102194.94;;;17.16;25.58
13478;BME280;12598;62.382;17.344;2023-03-01T04:55:27;102191.09;;;17.07;25.52
13478;BME280;12598;62.382;17.344;2023-03-01T04:56:29;102184.78;;;17.08;25.45
13478;BME280;12598;62.382;17.344;2023-03-01T04:57:32;102255.19;;;17.46;25.47
13478;BME280;12598;62.382;17.344;2023-03-01T04:58:33;102234.63;;;17.34;25.45
13478;BME280;12598;62.382;17.344;2023-03-01T04:59:35;102227.75;;;17.30;25.44
13478;BME280;12598;62.382;17.344;2023-03-01T05:00:37;102201.47;;;17.24;25.78
13478;BME280;12598;62.382;17.344;2023-03-01T05:01:39;102200.94;;;17.19;25.56
13478;BME280;12598;62.382;17.344;2023-03-01T05:02:44;102209.59;;;17.23;25.68
13478;BME280;12598;62.382;17.344;2023-03-01T05:03:48;102174.09;;;17.08;25.53
13478;BME280;12598;62.382;17.344;2023-03-01T05:04:51;102180.19;;;17.10;25.44
13478;BME280;12598;62.382;17.344;2023-03-01T05:05:53;102217.06;;;17.30;25.35
13478;BME280;12598;62.382;17.344;2023-03-01T05:06:55;102239.16;;;17.46;25.79
13478;BME280;12598;62.382;17.344;2023-03-01T05:08:00;102212.59;;;17.31;25.47
13478;BME280;12598;62.382;17.344;2023-03-01T05:09:02;102200.84;;;17.33;25.54
13478;BME280;12598;62.382;17.344;2023-03-01T05:10:04;102177.63;;;17.21;25.53
13478;BME280;12598;62.382;17.344;2023-03-01T05:11:06;102199.31;;;17.29;25.67
13478;BME280;12598;62.382;17.344;2023-03-01T05:12:10;102198.69;;;17.26;25.62
13478;BME280;12598;62.382;17.344;2023-03-01T05:13:13;102208.63;;;17.36;25.59
13478;BME280;12598;62.382;17.344;2023-03-01T05:14:22;102170.66;;;17.19;25.54
13478;BME280;12598;62.382;17.344;2023-03-01T05:15:25;102223.09;;;17.46;25.63
13478;BME280;12598;62.382;17.344;2023-03-01T05:16:28;102190.31;;;17.30;25.74
13478;BME280;12598;62.382;17.344;2023-03-01T05:17:30;102214.09;;;17.47;25.71
13478;BME280;12598;62.382;17.344;2023-03-01T05:18:33;102174.94;;;17.21;25.61
13478;BME280;12598;62.382;17.344;2023-03-01T05:19:35;102209.72;;;17.46;25.70
13478;BME280;12598;62.382;17.344;2023-03-01T05:20:37;102150.16;;;17.07;25.65
13478;BME280;12598;62.382;17.344;2023-03-01T05:21:40;102162.97;;;17.14;25.59
13478;BME280;12598;62.382;17.344;2023-03-01T05:23:01;102194.31;;;17.37;25.35
13478;BME280;12598;62.382;17.344;2023-03-01T05:24:07;102175.59;;;17.25;25.54
13478;BME280;12598;62.382;17.344;2023-03-01T05:25:13;102160.09;;;17.17;25.42
13478;BME280;12598;62.382;17.344;2023-03-01T05:26:16;102212.19;;;17.49;25.70
13478;BME280;12598;62.382;17.344;2023-03-01T05:27:35;102168.41;;;17.25;25.53
13478;BME280;12598;62.382;17.344;2023-03-01T05:28:37;102154.22;;;17.12;25.38
13478;BME280;12598;62.382;17.344;2023-03-01T05:29:39;102171.84;;;17.27;25.76
13478;BME280;12598;62.382;17.344;2023-03-01T05:30:41;102157.41;;;17.17;25.47
13478;BME280;12598;62.382;17.344;2023-03-01T05:31:43;102146.28;;;17.11;25.63
13478;BME280;12598;62.382;17.344;2023-03-01T05:32:49;102220.28;;;17.48;25.58
13478;BME280;12598;62.382;17.344;2023-03-01T05:33:57;102196.75;;;17.40;25.77
13478;BME280;12598;62.382;17.344;2023-03-01T05:34:59;102211.31;;;17.49;25.70
13478;BME280;12598;62.382;17.344;2023-03-01T05:36:01;102180.72;;;17.28;25.67
13478;BME280;12598;62.382;17.344;2023-03-01T05:37:03;102172.28;;;17.21;25.66
13478;BME280;12598;62.382;17.344;2023-03-01T05:38:06;102211.53;;;17.46;25.70
13478;BME280;12598;62.382;17.344;2023-03-01T05:39:08;102173.00;;;17.23;25.74